Portada
METAR-TAF:

METAR-TAF

Aeroports :

Buixehr, Iran

latitud: 28-59N, longitud: 050-50E, altitud: 19 m

Observació

L'informe es va fer fa 21 minuts, a les 07:00 UTC
Vent 10 kt del Sud-Oest
Temperatura 37°C
Humitat 54%
Pressió 997 hPa
Visibilitat 10 km o més
sense núvols per sota de 1500 mi sense presència de cumulonimbus.

METAR: OIBB 190700Z 23010KT CAVOK 37/26 Q0997 A2945

Hora: 11:51 (07:21 UTC)

Pronòstic

L'informe es va fer fa 2 hores i 21 minuts, a les 05:00 UTC
Pronòstic vàlid del 19 a les 06 UTC al 19 a les 15 UTC
Vent 10 kt del Sud/Sud-Oest
Visibilitat: 7000 m
Temporalment
l' 19 a les 09 UTC al 19 a les 15 UTC
Vent 16 kt del Oest

TAF: OIBB 190500Z 1906/1915 20010KT 7000 NSC TEMPO 1909/1915 27016KT

Observacions i pronòstics meteorològics de més de 4000 aeroports (METAR i TAF).

Les estacions disponibles són els punts grocs i vermells al mapa.

Posi el ratolí al punt desitjat per veure el nom de l'estació.

Feu clic per veure les observacions i els pronòstics meteorològics.

Per canviar el mapa: feu clic els botons verds amb una creu de color negre per apropar; al botó verd amb un guió per allunyar la imatge; o en les fletxes verdes per a mapes adjacents.


METAR-TAF: